Aeroporto :
LOGIN :

Iscrizione | Disclaimer

   EN    FR    IT 

 










Sommario :    VFR   VFR Marginale   IFR   IFR Intensivo   IFR Molto Intensivo
Visibilità : 
Base nubi : 
>= 8 km
>= 3000ft
5 / 8 km
1000 / 3000 ft
1500m / 5 km
500 / 1000 ft
800 / 1500m
200 / 500 ft
< 800m
< 200 ft
Simboli :   Temporali  Nebbia  Neve Forte  Precipitazioni Forti  Vento > 20 kt
SIGMETs :   Varie  Temporali  Ghiacco  Turbolenza  Onda orograficha  Ceneri Vulcaniche







- Altitudine del aeroporto : 7 ft
- Codice IATA : VCE


LIPZ - Marco Polo Int. Venezia

ULTIMO METAR :
  • 161250Z 19004KT CAVOK 12/04 Q1031 NOSIG

METARs OBSOLETI :
  • 161220Z 19004KT CAVOK 12/04 Q1031 NOSIG
  • 161150Z 18004KT CAVOK 11/04 Q1031 NOSIG
  • 161120Z VRB02KT CAVOK 11/04 Q1032 NOSIG
  • 161050Z VRB02KT CAVOK 10/03 Q1032 NOSIG
  • 161020Z VRB01KT CAVOK 09/03 Q1032 NOSIG
  • 160950Z VRB02KT CAVOK 07/03 Q1032 NOSIG

TAF TAF LIPZ
Valido dal 16 a 12 ore il 17 a 18 ore UTC


161100Z 1612/1718 VRB05KT CAVOK
TEMPO 1622/1707 1200 BCFG
Nessun NOTAM noto per questo aeroporto.



MetMap, La meteo Aeronautica in un colpo d'occhio ! - Copyright ORBIFLY Dicembre 2007 - Disclaimer

ORBIFLY MET'MAP TEAM :

Programmazione e sviluppo : Alexandra Zaïnal
Concezione e sviluppo : Baudouin d'Aumeries
Co-Programmazione e sviluppo : Marc-Olivier Méhu
Supporto tecnico e logistico : Manuel Goepfert
Aiuto per la traduzione : Arnaldo La Scala

Contatto : metmap@orbifly.com




FONTI E CREDITI :

   NOAA